createdAt,value
2018-11-28T00:00:33.778Z,39.78
2018-11-28T00:02:37.565Z,39.42
2018-11-28T00:04:41.379Z,36.25
2018-11-28T00:06:45.241Z,36.88
2018-11-28T00:08:52.046Z,37.17
2018-11-28T00:10:55.917Z,35.17
2018-11-28T00:12:59.749Z,38.73
2018-11-28T00:15:04.151Z,39.60
2018-11-28T00:17:07.975Z,37.93
2018-11-28T00:19:11.801Z,39.67
2018-11-28T00:21:15.612Z,37.63
2018-11-28T00:23:19.502Z,35.45
2018-11-28T00:25:23.677Z,40.73
2018-11-28T00:27:27.506Z,40.45
2018-11-28T00:29:31.314Z,38.00
2018-11-28T00:31:35.178Z,39.75
2018-11-28T00:33:38.995Z,39.53
2018-11-28T00:35:42.815Z,36.50
2018-11-28T00:37:47.026Z,35.92
2018-11-28T00:39:50.837Z,39.63
2018-11-28T00:41:54.693Z,38.10
2018-11-28T00:43:58.540Z,39.88
2018-11-28T00:46:02.399Z,41.13
2018-11-28T00:48:06.639Z,37.35
2018-11-28T00:50:14.630Z,43.70
2018-11-28T00:52:18.427Z,40.08
2018-11-28T00:54:22.261Z,39.27
2018-11-28T00:56:26.067Z,39.13
2018-11-28T00:58:29.898Z,38.40
2018-11-28T01:00:33.740Z,40.28
2018-11-28T01:02:38.158Z,38.40
2018-11-28T01:04:42.385Z,42.20
2018-11-28T01:06:46.183Z,40.98
2018-11-28T01:08:50.001Z,40.15
2018-11-28T01:10:54.089Z,42.03
2018-11-28T01:12:57.943Z,40.98
2018-11-28T01:15:01.815Z,39.90
2018-11-28T01:17:06.128Z,39.03
2018-11-28T01:19:09.937Z,39.30
2018-11-28T01:21:14.459Z,42.73
2018-11-28T01:23:18.288Z,41.05
2018-11-28T01:25:22.783Z,33.98
2018-11-28T01:27:26.581Z,38.98
2018-11-28T01:29:30.389Z,42.55
2018-11-28T01:31:34.237Z,35.55
2018-11-28T01:33:38.026Z,37.48
2018-11-28T01:35:41.890Z,41.92
2018-11-28T01:37:46.512Z,41.13
2018-11-28T01:39:50.350Z,38.60
2018-11-28T01:41:54.195Z,40.28
2018-11-28T01:43:57.993Z,37.80
2018-11-28T01:46:01.842Z,35.80
2018-11-28T01:48:05.853Z,35.88
2018-11-28T01:50:11.067Z,42.35
2018-11-28T01:52:14.996Z,39.03
2018-11-28T01:54:18.853Z,37.70
2018-11-28T01:56:22.718Z,41.02
2018-11-28T01:58:26.599Z,39.15
2018-11-28T02:00:30.413Z,40.15
2018-11-28T02:02:34.249Z,39.80
2018-11-28T02:04:38.135Z,39.00
2018-11-28T02:06:41.993Z,39.35
2018-11-28T02:08:45.843Z,38.13
2018-11-28T02:10:49.702Z,43.33
2018-11-28T02:12:53.452Z,36.10
2018-11-28T02:14:57.235Z,42.00
2018-11-28T02:17:01.096Z,38.35
2018-11-28T02:19:05.612Z,39.30
2018-11-28T02:21:09.462Z,37.10
2018-11-28T02:23:13.433Z,43.42
2018-11-28T02:25:18.370Z,47.38
2018-11-28T02:27:22.229Z,40.38
2018-11-28T02:29:26.059Z,45.65
2018-11-28T02:31:29.884Z,47.40
2018-11-28T02:33:34.269Z,45.95
2018-11-28T02:35:38.172Z,43.63
2018-11-28T02:37:42.141Z,49.40
2018-11-28T02:39:45.985Z,55.38
2018-11-28T02:41:49.792Z,48.20
2018-11-28T02:43:53.643Z,50.75
2018-11-28T02:46:08.780Z,47.13
2018-11-28T02:48:12.609Z,47.45
2018-11-28T02:50:16.457Z,45.63
2018-11-28T02:52:20.303Z,47.25
2018-11-28T02:54:24.122Z,43.10
2018-11-28T02:56:27.898Z,40.95
2018-11-28T02:58:31.700Z,49.10
2018-11-28T03:00:35.572Z,48.40
2018-11-28T03:02:39.407Z,47.73
2018-11-28T03:04:43.234Z,47.10
2018-11-28T03:06:47.037Z,50.48
2018-11-28T03:08:50.879Z,44.48
2018-11-28T03:10:55.028Z,46.13
2018-11-28T03:12:59.447Z,45.85
2018-11-28T03:15:03.317Z,45.95
2018-11-28T03:17:07.996Z,41.92
2018-11-28T03:19:11.822Z,45.40
2018-11-28T03:21:15.955Z,47.50
2018-11-28T03:23:19.786Z,39.88
2018-11-28T03:25:24.015Z,46.92
2018-11-28T03:27:27.841Z,41.28
2018-11-28T03:29:31.707Z,50.65
2018-11-28T03:31:35.510Z,50.28
2018-11-28T03:33:39.373Z,50.48
2018-11-28T03:35:43.173Z,46.50
2018-11-28T03:37:47.039Z,48.02
2018-11-28T03:39:50.879Z,42.05
2018-11-28T03:41:54.728Z,43.05
2018-11-28T03:43:58.523Z,45.52
2018-11-28T03:46:02.342Z,46.88
2018-11-28T03:48:06.293Z,38.98
2018-11-28T03:50:11.733Z,45.30
2018-11-28T03:52:15.549Z,42.85
2018-11-28T03:54:19.369Z,40.78
2018-11-28T03:56:23.227Z,44.83
2018-11-28T03:58:27.026Z,47.65
2018-11-28T04:00:30.856Z,46.90
2018-11-28T04:02:34.669Z,47.30
2018-11-28T04:04:38.519Z,36.90
2018-11-28T04:06:42.352Z,45.25
2018-11-28T04:08:46.188Z,43.50
2018-11-28T04:10:50.038Z,39.40
2018-11-28T04:12:53.824Z,38.08
2018-11-28T04:14:57.655Z,37.13
2018-11-28T04:17:01.488Z,41.42
2018-11-28T04:19:06.178Z,44.65
2018-11-28T04:21:10.054Z,41.15
2018-11-28T04:23:13.897Z,40.17
2018-11-28T04:25:18.940Z,36.75
2018-11-28T04:27:22.742Z,40.28
2018-11-28T04:29:26.605Z,41.00
2018-11-28T04:31:30.419Z,46.48
2018-11-28T04:33:34.255Z,40.67
2018-11-28T04:35:38.115Z,36.08
2018-11-28T04:37:42.221Z,40.35
2018-11-28T04:39:46.066Z,39.08
2018-11-28T04:41:49.869Z,35.13
2018-11-28T04:43:53.680Z,38.67
2018-11-28T04:45:57.511Z,39.90
2018-11-28T04:48:01.652Z,38.30
2018-11-28T04:50:06.715Z,37.08
2018-11-28T04:52:10.593Z,37.53
2018-11-28T04:54:14.813Z,39.53
2018-11-28T04:56:19.110Z,36.20
2018-11-28T04:58:22.908Z,36.68
2018-11-28T05:00:27.462Z,37.93
2018-11-28T05:02:31.275Z,36.38
2018-11-28T05:04:35.084Z,38.30
2018-11-28T05:07:45.110Z,41.80
2018-11-28T05:09:48.933Z,37.33
2018-11-28T05:11:52.779Z,39.60
2018-11-28T05:13:56.602Z,37.83
2018-11-28T05:16:00.451Z,36.42
2018-11-28T05:18:04.284Z,43.83
2018-11-28T05:20:10.308Z,42.45
2018-11-28T05:22:14.210Z,40.73
2018-11-28T05:24:18.493Z,38.88
2018-11-28T05:26:22.334Z,36.30
2018-11-28T05:28:26.191Z,41.73
2018-11-28T05:30:31.107Z,39.95
2018-11-28T05:32:35.363Z,37.63
2018-11-28T05:34:39.248Z,45.70
2018-11-28T05:36:43.250Z,40.00
2018-11-28T05:38:47.190Z,40.67
2018-11-28T05:40:52.225Z,40.00
2018-11-28T05:42:56.589Z,44.20
2018-11-28T05:45:00.407Z,39.03
2018-11-28T05:47:04.383Z,45.80
2018-11-28T05:49:08.679Z,35.40
2018-11-28T05:51:13.074Z,39.27
2018-11-28T05:53:23.428Z,37.58
2018-11-28T05:55:27.289Z,39.38
2018-11-28T05:57:31.229Z,40.92
2018-11-28T05:59:35.146Z,38.17
2018-11-28T06:01:39.103Z,37.33
2018-11-28T06:03:43.006Z,38.85
2018-11-28T06:05:57.171Z,37.13
2018-11-28T06:08:01.232Z,39.78
2018-11-28T06:10:05.461Z,38.63
2018-11-28T06:12:09.448Z,37.58
2018-11-28T06:14:20.014Z,35.45
2018-11-28T06:16:25.715Z,39.78
2018-11-28T06:18:29.563Z,41.13
2018-11-28T06:20:33.479Z,38.38
2018-11-28T06:22:37.464Z,35.35
2018-11-28T06:24:41.403Z,34.18
2018-11-28T06:26:45.240Z,34.92
2018-11-28T06:28:49.865Z,36.15
2018-11-28T06:30:52.968Z,37.05
2018-11-28T06:32:57.116Z,40.73
2018-11-28T06:35:00.931Z,39.50
2018-11-28T06:37:05.268Z,38.88
2018-11-28T06:39:10.214Z,38.60
2018-11-28T06:41:15.097Z,41.23
2018-11-28T06:43:24.810Z,44.10
2018-11-28T06:45:32.458Z,43.78
2018-11-28T06:47:43.884Z,39.85
2018-11-28T06:52:16.576Z,41.55
2018-11-28T06:54:23.524Z,39.55
2018-11-28T06:56:27.854Z,37.48
2018-11-28T06:58:32.709Z,39.23
2018-11-28T07:00:51.157Z,36.58
2018-11-28T07:03:14.199Z,30.65
2018-11-28T07:05:41.315Z,38.70
2018-11-28T07:08:14.150Z,39.20
2018-11-28T07:11:21.840Z,36.15
2018-11-28T07:13:41.750Z,32.35
2018-11-28T07:16:05.447Z,36.15
2018-11-28T07:18:29.221Z,31.57
2018-11-28T07:23:31.187Z,34.43
2018-11-28T07:25:56.053Z,38.23
2018-11-28T07:30:57.055Z,33.92
2018-11-28T07:36:15.010Z,33.13
2018-11-28T07:38:34.876Z,36.98
2018-11-28T07:40:44.819Z,32.08
2018-11-28T07:45:33.403Z,34.08
2018-11-28T07:50:31.880Z,35.30
2018-11-28T07:52:50.185Z,31.62
2018-11-28T07:54:59.134Z,32.33
2018-11-28T07:57:12.534Z,29.85
2018-11-28T07:59:20.107Z,28.85
2018-11-28T08:10:27.756Z,26.87
2018-11-28T08:12:33.642Z,29.20
2018-11-28T08:14:37.668Z,30.32
2018-11-28T08:16:48.125Z,30.20
2018-11-28T08:18:53.572Z,26.33
2018-11-28T08:20:57.561Z,30.43
2018-11-28T08:23:04.688Z,30.80
2018-11-28T08:25:17.316Z,32.75
2018-11-28T08:27:22.269Z,30.15
2018-11-28T08:29:31.373Z,26.48
2018-11-28T08:31:36.261Z,25.80
2018-11-28T08:33:42.952Z,31.85
2018-11-28T08:35:47.736Z,34.25
2018-11-28T08:37:51.559Z,30.97
2018-11-28T08:39:58.151Z,30.02
2018-11-28T08:42:06.174Z,26.40
2018-11-28T08:44:11.183Z,39.58
2018-11-28T08:46:22.239Z,30.02
2018-11-28T08:48:42.627Z,25.55
2018-11-28T08:50:55.370Z,30.05
2018-11-28T08:53:10.906Z,28.83
2018-11-28T08:58:09.488Z,26.82
2018-11-28T09:03:21.133Z,27.02
2018-11-28T09:05:33.860Z,25.50
2018-11-28T15:42:20.529Z,17.23
2018-11-28T15:44:24.378Z,18.00
2018-11-28T15:46:28.144Z,17.80
2018-11-28T15:48:31.927Z,17.90
2018-11-28T15:50:35.734Z,15.65
2018-11-28T15:52:39.537Z,18.73
2018-11-28T15:54:43.737Z,18.62
2018-11-28T15:56:47.545Z,17.17
2018-11-28T15:58:51.383Z,14.80
2018-11-28T16:00:55.573Z,17.48
2018-11-28T16:02:59.881Z,17.02
2018-11-28T16:05:03.842Z,16.35
2018-11-28T16:07:07.654Z,17.35
2018-11-28T16:09:16.586Z,14.70
2018-11-28T16:11:20.355Z,16.60
2018-11-28T16:13:24.173Z,16.48
2018-11-28T16:15:29.758Z,16.95
2018-11-28T16:17:33.526Z,17.80
2018-11-28T16:19:37.278Z,18.70
2018-11-28T16:21:41.415Z,16.07
2018-11-28T16:23:45.286Z,15.65
2018-11-28T16:25:49.394Z,15.05
2018-11-28T16:27:53.346Z,14.33
2018-11-28T16:29:57.386Z,15.38
2018-11-28T16:32:01.478Z,13.32
2018-11-28T16:34:05.614Z,13.35
2018-11-28T16:36:09.483Z,12.90
2018-11-28T16:38:13.388Z,13.68
2018-11-28T16:40:17.608Z,15.10
2018-11-28T16:42:21.735Z,14.13
2018-11-28T16:44:26.366Z,16.42
2018-11-28T16:46:30.402Z,13.25
2018-11-28T16:48:34.193Z,13.65
2018-11-28T16:50:37.996Z,13.22
2018-11-28T16:52:42.664Z,16.10
2018-11-28T16:54:46.616Z,14.38
2018-11-28T16:56:50.579Z,13.40
2018-11-28T16:58:54.493Z,13.80
2018-11-28T17:00:58.858Z,15.28
2018-11-28T17:03:02.850Z,14.87
2018-11-28T17:05:16.038Z,15.00
2018-11-28T17:07:19.907Z,14.45
2018-11-28T17:09:23.738Z,14.10
2018-11-28T17:11:27.547Z,15.05
2018-11-28T17:13:31.323Z,16.40
2018-11-28T17:15:35.085Z,14.00
2018-11-28T17:17:38.853Z,14.63
2018-11-28T17:19:42.661Z,14.58
2018-11-28T17:21:46.609Z,15.50
2018-11-28T17:23:50.395Z,14.30
2018-11-28T17:25:54.243Z,15.05
2018-11-28T17:27:58.212Z,13.43
2018-11-28T17:30:01.978Z,15.63
2018-11-28T17:32:06.104Z,14.95
2018-11-28T17:34:09.897Z,13.10
2018-11-28T17:36:13.650Z,14.55
2018-11-28T17:38:17.423Z,14.98
2018-11-28T17:40:25.309Z,14.85
2018-11-28T17:42:29.103Z,18.05
2018-11-28T17:44:32.875Z,15.68
2018-11-28T17:46:36.654Z,14.15
2018-11-28T17:48:40.490Z,14.23
2018-11-28T17:50:44.278Z,13.80
2018-11-28T17:53:09.311Z,13.88
2018-11-28T17:55:14.813Z,14.70
2018-11-28T17:57:18.571Z,12.95
2018-11-28T17:59:22.382Z,13.28
2018-11-28T18:01:26.221Z,15.18
2018-11-28T18:03:30.045Z,13.50
2018-11-28T18:05:33.857Z,14.58
2018-11-28T18:07:38.112Z,13.25
2018-11-28T18:09:42.012Z,14.33
2018-11-28T18:11:45.817Z,12.73
2018-11-28T18:13:49.612Z,14.35
2018-11-28T18:15:54.506Z,15.28
2018-11-28T18:17:58.447Z,15.63
2018-11-28T18:29:58.159Z,16.97
2018-11-28T18:32:01.962Z,14.98
2018-11-28T18:34:05.790Z,15.55
2018-11-28T18:36:09.614Z,13.55
2018-11-28T18:38:13.381Z,16.50
2018-11-28T18:40:17.194Z,15.03
2018-11-28T18:42:20.932Z,12.70
2018-11-28T18:44:24.757Z,17.10
2018-11-28T18:46:28.527Z,16.00
2018-11-28T18:48:32.294Z,15.45
2018-11-28T18:50:36.130Z,16.40
2018-11-28T18:52:39.911Z,16.20
2018-11-28T18:54:43.714Z,20.08
2018-11-28T18:56:47.485Z,20.27
2018-11-28T18:58:51.268Z,17.42
2018-11-28T19:00:55.051Z,13.98
2018-11-28T19:02:58.851Z,29.02
2018-11-28T19:05:02.661Z,18.45
2018-11-28T19:07:06.781Z,23.32
2018-11-28T19:09:14.734Z,18.12
2018-11-28T19:11:18.870Z,20.95
2018-11-28T19:13:22.663Z,16.75
2018-11-28T19:15:27.696Z,18.15
2018-11-28T19:17:31.471Z,20.77
2018-11-28T19:19:35.299Z,33.67
2018-11-28T19:21:39.071Z,43.40
2018-11-28T19:23:42.838Z,18.37
2018-11-28T19:25:49.903Z,31.55
2018-11-28T19:27:50.499Z,19.87
2018-11-28T19:29:54.285Z,19.27
2018-11-28T19:31:58.010Z,34.40
2018-11-28T19:34:01.876Z,35.35
2018-11-28T19:36:05.706Z,38.42
2018-11-28T19:38:12.393Z,39.27
2018-11-28T19:40:21.862Z,36.88
2018-11-28T19:42:25.618Z,29.32
2018-11-28T19:44:29.439Z,25.02
2018-11-28T19:46:33.176Z,24.23
2018-11-28T19:48:36.961Z,26.23
2018-11-28T19:50:40.756Z,22.73
2018-11-28T19:52:44.587Z,23.15
2018-11-28T19:54:48.406Z,73.92
2018-11-28T19:56:52.204Z,35.15
2018-11-28T19:58:55.975Z,34.27
2018-11-28T20:00:59.778Z,25.40
2018-11-28T20:03:03.668Z,22.20
2018-11-28T20:05:07.531Z,24.72
2018-11-28T20:07:11.305Z,23.40
2018-11-28T20:09:21.832Z,28.25
2018-11-28T20:11:25.613Z,24.10
2018-11-28T20:13:29.380Z,25.32
2018-11-28T20:15:33.301Z,24.23
2018-11-28T20:17:37.051Z,27.02
2018-11-28T20:19:40.802Z,22.40
2018-11-28T20:21:44.588Z,21.65
2018-11-28T20:23:48.401Z,28.87
2018-11-28T20:25:52.186Z,36.28
2018-11-28T20:27:58.406Z,51.98
2018-11-28T20:30:02.204Z,44.35
2018-11-28T20:32:06.369Z,35.63
2018-11-28T20:34:10.175Z,26.05
2018-11-28T20:36:13.974Z,23.35
2018-11-28T20:38:25.529Z,25.72
2018-11-28T20:40:32.522Z,23.57
2018-11-28T20:42:36.311Z,24.57
2018-11-28T20:44:40.075Z,22.22
2018-11-28T20:46:43.855Z,20.77
2018-11-28T20:48:47.611Z,21.45
2018-11-28T20:50:52.058Z,21.50
2018-11-28T20:52:57.467Z,21.30
2018-11-28T20:55:01.310Z,24.30
2018-11-28T20:57:05.427Z,21.70
2018-11-28T20:59:09.191Z,20.95
2018-11-28T21:01:13.426Z,25.08
2018-11-28T21:03:17.202Z,20.40
2018-11-28T21:05:21.391Z,20.82
2018-11-28T21:07:25.242Z,24.95
2018-11-28T21:09:28.995Z,21.95
2018-11-28T21:11:32.806Z,23.10
2018-11-28T21:13:36.555Z,25.48
2018-11-28T21:15:41.044Z,22.90
2018-11-28T21:17:45.435Z,23.55
2018-11-28T21:19:49.219Z,21.97
2018-11-28T21:21:52.988Z,24.98
2018-11-28T21:23:56.771Z,27.10
2018-11-28T21:26:00.563Z,24.37
2018-11-28T21:28:04.396Z,23.75
2018-11-28T21:30:10.561Z,23.98
2018-11-28T21:32:14.366Z,22.98
2018-11-28T21:34:18.146Z,24.18
2018-11-28T21:36:21.940Z,21.77
2018-11-28T21:38:26.785Z,20.95
2018-11-28T21:40:30.560Z,24.52
2018-11-28T21:42:34.351Z,23.47
2018-11-28T21:44:38.123Z,23.05
2018-11-28T21:46:41.931Z,23.00
2018-11-28T21:48:45.695Z,23.73
2018-11-28T21:50:49.444Z,21.50
2018-11-28T21:52:53.647Z,25.72
2018-11-28T21:54:57.376Z,22.17
2018-11-28T21:57:01.158Z,25.12
2018-11-28T21:59:04.939Z,25.10
2018-11-28T22:01:08.702Z,27.82
2018-11-28T22:03:12.505Z,26.25
2018-11-28T22:05:16.809Z,29.77
2018-11-28T22:07:20.637Z,27.25
2018-11-28T22:09:24.487Z,28.57
2018-11-28T22:11:28.283Z,25.08
2018-11-28T22:13:32.056Z,26.80
2018-11-28T22:15:35.846Z,24.85
2018-11-28T22:17:40.774Z,28.83
2018-11-28T22:19:44.550Z,28.30
2018-11-28T22:21:48.334Z,29.02
2018-11-28T22:23:52.139Z,27.62
2018-11-28T22:25:55.898Z,23.73
2018-11-28T22:27:59.665Z,37.42
2018-11-28T22:30:03.493Z,24.07
2018-11-28T22:32:07.295Z,21.85
2018-11-28T22:34:11.051Z,21.90
2018-11-28T22:36:14.829Z,28.67
2018-11-28T22:38:19.158Z,26.77
2018-11-28T22:40:24.029Z,21.57
2018-11-28T22:42:27.823Z,19.67
2018-11-28T22:44:31.621Z,20.32
2018-11-28T22:46:35.383Z,21.87
2018-11-28T22:48:39.199Z,20.02
2018-11-28T22:50:42.961Z,103.20
2018-11-28T22:52:47.082Z,69.65
2018-11-28T22:54:51.278Z,33.92
2018-11-28T22:56:55.074Z,52.10
2018-11-28T22:58:58.872Z,36.70
2018-11-28T23:01:11.058Z,123.13
2018-11-28T23:03:14.841Z,65.52
2018-11-28T23:05:18.903Z,61.63
2018-11-28T23:07:22.686Z,40.73
2018-11-28T23:09:26.614Z,33.25
2018-11-28T23:11:30.373Z,31.62
2018-11-28T23:13:34.182Z,19.48
2018-11-28T23:15:38.351Z,22.05
2018-11-28T23:17:42.166Z,24.05
2018-11-28T23:19:45.970Z,30.00
2018-11-28T23:21:50.156Z,31.45
2018-11-28T23:23:53.545Z,31.40
2018-11-28T23:25:57.302Z,36.93
2018-11-28T23:28:01.105Z,34.35
2018-11-28T23:30:05.576Z,30.43
2018-11-28T23:32:09.346Z,27.62
2018-11-28T23:34:13.107Z,21.80
2018-11-28T23:36:16.917Z,40.73
2018-11-28T23:38:20.729Z,20.77
2018-11-28T23:40:25.611Z,19.40
2018-11-28T23:42:29.367Z,27.50
2018-11-28T23:44:33.170Z,23.85
2018-11-28T23:46:36.948Z,31.97
2018-11-28T23:48:40.760Z,30.72
2018-11-28T23:50:44.563Z,41.20
2018-11-28T23:52:48.821Z,27.93
2018-11-28T23:54:52.627Z,24.45
2018-11-28T23:56:56.403Z,21.55
2018-11-28T23:59:00.364Z,27.70
